Glide, Oregon
Current Conditions -  °F | °C
As of 7:53 PM on Saturday 22 Nov 2014 (Local Time) from KRBG Reporting Station
Broken Clouds Broken Clouds  
Wind Chill: 44°   Ceiling: 4800
Heat Index: 47°   Visibility: 10mi
Dew Point: 42°   Wind: 7mph
Humidity: 83%   Direction: 150°SSE
Pressure: 30.25"   Gusts: NA
Location:  43.3°N, 123.1°W
Report Text: KRBG 230353Z AUTO 15006KT 10SM SCT037 BKN048 08/06 A3025 RMK AO2 SLP246 T00830056 TSNO $
Loading
Personal Weather Stations






























Interactive Weather Map New forecast layout! Learn more

10-Day Weather Forecast

Advertisements
Track Severe Weather on mobile